Time,TemperatureF,DewpointF,PressureIn,WindDirection,WindDirectionDegrees,WindSpeedMPH,WindSpeedGustMPH,Humidity,HourlyPrecipIn,Conditions,Clouds,dailyrainin,SoftwareType,DateUTC
2013-03-19 00:04:00,34.0,30.8,30.22,SW,227,0.0,0.0,88,0.00,,,0.03,Wunderground v.1.15,2013-03-19 07:04:00,
2013-03-19 00:09:00,33.9,30.7,30.22,SW,227,0.0,0.0,88,0.00,,,0.03,Wunderground v.1.15,2013-03-19 07:09:00,
2013-03-19 00:14:00,33.7,30.5,30.22,SW,227,0.0,0.0,88,0.00,,,0.03,Wunderground v.1.15,2013-03-19 07:14:00,
2013-03-19 00:20:00,33.6,30.4,30.22,SW,227,0.0,0.0,88,0.00,,,0.00,Wunderground v.1.15,2013-03-19 07:20:00,
2013-03-19 00:25:00,33.5,30.6,30.22,SW,227,0.0,0.0,89,0.00,,,0.00,Wunderground v.1.15,2013-03-19 07:25:00,
2013-03-19 00:30:00,33.4,30.5,30.21,SW,227,0.0,0.0,89,0.00,,,0.00,Wunderground v.1.15,2013-03-19 07:30:00,
2013-03-19 00:37:00,33.3,30.4,30.21,SW,226,0.0,0.0,89,0.00,,,0.00,Wunderground v.1.15,2013-03-19 07:37:00,
2013-03-19 00:43:00,33.2,30.3,30.21,SW,227,0.0,0.0,89,0.00,,,0.00,Wunderground v.1.15,2013-03-19 07:43:00,
2013-03-19 00:48:00,33.2,30.3,30.21,SW,227,0.0,0.0,89,0.00,,,0.00,Wunderground v.1.15,2013-03-19 07:48:00,
2013-03-19 00:53:00,33.2,30.3,30.21,SW,226,0.0,0.0,89,0.00,,,0.00,Wunderground v.1.15,2013-03-19 07:53:00,
2013-03-19 00:59:00,33.1,30.5,30.21,SW,226,0.0,0.0,90,0.00,,,0.00,Wunderground v.1.15,2013-03-19 07:59:00,
2013-03-19 01:04:00,33.1,30.2,30.21,SW,226,0.0,0.0,89,0.00,,,0.00,Wunderground v.1.15,2013-03-19 08:04:00,
2013-03-19 01:10:00,33.0,30.1,30.21,SW,227,0.0,0.0,89,0.00,,,0.00,Wunderground v.1.15,2013-03-19 08:10:00,
2013-03-19 01:15:00,32.9,30.0,30.21,SW,227,0.0,0.0,89,0.00,,,0.00,Wunderground v.1.15,2013-03-19 08:15:00,
2013-03-19 01:21:00,32.7,29.8,30.20,SW,227,0.0,0.0,89,0.00,,,0.00,Wunderground v.1.15,2013-03-19 08:21:00,
2013-03-19 01:27:00,32.6,30.0,30.20,SW,227,0.0,0.0,90,0.00,,,0.00,Wunderground v.1.15,2013-03-19 08:27:00,
2013-03-19 01:33:00,32.6,30.0,30.20,SW,227,0.0,0.0,90,0.00,,,0.00,Wunderground v.1.15,2013-03-19 08:33:00,
2013-03-19 01:38:00,32.6,30.0,30.20,SW,226,0.0,0.0,90,0.00,,,0.00,Wunderground v.1.15,2013-03-19 08:38:00,
2013-03-19 01:43:00,32.6,30.0,30.20,SW,227,0.0,0.0,90,0.00,,,0.00,Wunderground v.1.15,2013-03-19 08:43:00,
2013-03-19 01:48:00,32.7,30.1,30.20,SW,227,0.0,0.0,90,0.00,,,0.00,Wunderground v.1.15,2013-03-19 08:48:00,
2013-03-19 01:54:00,32.8,30.2,30.20,SW,227,0.0,0.0,90,0.00,,,0.00,Wunderground v.1.15,2013-03-19 08:54:00,
2013-03-19 01:59:00,32.8,30.2,30.20,SW,226,0.0,0.0,90,0.00,,,0.00,Wunderground v.1.15,2013-03-19 08:59:00,
2013-03-19 02:04:00,32.9,30.3,30.20,SW,227,0.0,0.0,90,0.00,,,0.00,Wunderground v.1.15,2013-03-19 09:04:00,
2013-03-19 02:09:00,32.9,30.3,30.20,SW,227,0.0,0.0,90,0.00,,,0.00,Wunderground v.1.15,2013-03-19 09:09:00,
2013-03-19 02:14:00,32.8,30.2,30.20,SW,227,0.0,0.0,90,0.00,,,0.00,Wunderground v.1.15,2013-03-19 09:14:00,
2013-03-19 02:19:00,32.7,30.1,30.20,SW,226,0.0,0.0,90,0.00,,,0.00,Wunderground v.1.15,2013-03-19 09:19:00,
2013-03-19 02:24:00,32.6,30.0,30.20,SW,227,0.0,0.0,90,0.00,,,0.00,Wunderground v.1.15,2013-03-19 09:24:00,
2013-03-19 02:29:00,32.5,29.9,30.20,SW,227,0.0,0.0,90,0.00,,,0.00,Wunderground v.1.15,2013-03-19 09:29:00,
2013-03-19 02:34:00,32.5,29.9,30.20,SW,227,0.0,0.0,90,0.00,,,0.00,Wunderground v.1.15,2013-03-19 09:34:00,
2013-03-19 02:39:00,32.4,29.8,30.20,SW,227,0.0,0.0,90,0.00,,,0.00,Wunderground v.1.15,2013-03-19 09:39:00,
2013-03-19 02:44:00,32.4,29.8,30.20,SW,227,0.0,0.0,90,0.00,,,0.00,Wunderground v.1.15,2013-03-19 09:44:00,
2013-03-19 02:49:00,32.3,29.7,30.19,SW,226,0.0,0.0,90,0.00,,,0.00,Wunderground v.1.15,2013-03-19 09:49:00,
2013-03-19 02:54:00,32.2,29.6,30.19,SW,226,0.0,0.0,90,0.00,,,0.00,Wunderground v.1.15,2013-03-19 09:54:00,
2013-03-19 02:59:00,32.2,29.6,30.19,SW,227,0.0,0.0,90,0.00,,,0.00,Wunderground v.1.15,2013-03-19 09:59:00,
2013-03-19 03:04:00,32.2,29.6,30.19,SW,226,0.0,0.0,90,0.00,,,0.00,Wunderground v.1.15,2013-03-19 10:04:00,
2013-03-19 03:09:00,32.3,29.7,30.19,SW,227,0.0,0.0,90,0.00,,,0.00,Wunderground v.1.15,2013-03-19 10:09:00,
2013-03-19 03:14:00,32.3,29.7,30.19,SW,227,0.0,0.0,90,0.00,,,0.00,Wunderground v.1.15,2013-03-19 10:14:00,
2013-03-19 03:19:00,32.2,29.6,30.19,SW,227,0.0,0.0,90,0.00,,,0.00,Wunderground v.1.15,2013-03-19 10:19:00,
2013-03-19 03:24:00,32.2,29.6,30.19,SW,226,0.0,0.0,90,0.00,,,0.00,Wunderground v.1.15,2013-03-19 10:24:00,
2013-03-19 03:29:00,32.2,29.6,30.19,SW,226,0.0,0.0,90,0.00,,,0.00,Wunderground v.1.15,2013-03-19 10:29:00,
2013-03-19 03:34:00,32.3,29.7,30.19,SW,226,0.0,0.0,90,0.00,,,0.00,Wunderground v.1.15,2013-03-19 10:34:00,
2013-03-19 03:39:00,32.3,29.7,30.19,SW,227,0.0,0.0,90,0.00,,,0.00,Wunderground v.1.15,2013-03-19 10:39:00,
2013-03-19 03:44:00,32.4,30.1,30.19,SW,227,0.0,0.0,91,0.00,,,0.00,Wunderground v.1.15,2013-03-19 10:44:00,
2013-03-19 03:49:00,32.6,30.3,30.19,SW,226,0.0,0.0,91,0.00,,,0.00,Wunderground v.1.15,2013-03-19 10:49:00,
2013-03-19 03:54:00,32.6,30.3,30.18,SW,227,0.0,0.0,91,0.00,,,0.00,Wunderground v.1.15,2013-03-19 10:54:00,
2013-03-19 03:59:00,32.6,30.3,30.18,SW,226,0.0,0.0,91,0.00,,,0.00,Wunderground v.1.15,2013-03-19 10:59:00,
2013-03-19 04:04:00,32.6,30.3,30.18,SW,227,0.0,0.0,91,0.00,,,0.00,Wunderground v.1.15,2013-03-19 11:04:00,
2013-03-19 04:10:00,32.5,30.2,30.18,SW,227,0.0,0.0,91,0.00,,,0.00,Wunderground v.1.15,2013-03-19 11:10:00,
2013-03-19 04:15:00,32.4,29.8,30.18,SW,226,0.0,0.0,90,0.00,,,0.00,Wunderground v.1.15,2013-03-19 11:15:00,
2013-03-19 04:20:00,32.2,29.6,30.18,SW,227,0.0,0.0,90,0.00,,,0.00,Wunderground v.1.15,2013-03-19 11:20:00,
2013-03-19 04:25:00,32.1,29.5,30.17,SW,227,0.0,0.0,90,0.00,,,0.00,Wunderground v.1.15,2013-03-19 11:25:00,
2013-03-19 04:30:00,32.0,29.4,30.17,WNW,288,0.0,0.0,90,0.00,,,0.00,Wunderground v.1.15,2013-03-19 11:30:00,
2013-03-19 04:35:00,32.0,29.7,30.17,WNW,290,0.0,1.0,91,0.00,,,0.00,Wunderground v.1.15,2013-03-19 11:35:00,
2013-03-19 04:40:00,32.1,29.8,30.17,WNW,290,0.0,0.0,91,0.00,,,0.00,Wunderground v.1.15,2013-03-19 11:40:00,
2013-03-19 04:45:00,32.3,30.0,30.16,North,10,0.0,3.0,91,0.00,,,0.00,Wunderground v.1.15,2013-03-19 11:45:00,
2013-03-19 04:50:00,32.7,30.4,30.16,NNE,24,1.0,3.0,91,0.00,,,0.00,Wunderground v.1.15,2013-03-19 11:50:00,
2013-03-19 04:55:00,33.0,30.7,30.15,North,355,0.0,3.0,91,0.00,,,0.00,Wunderground v.1.15,2013-03-19 11:55:00,
2013-03-19 05:01:00,33.4,31.1,30.16,NNE,21,1.0,1.0,91,0.00,,,0.00,Wunderground v.1.15,2013-03-19 12:01:00,
2013-03-19 05:06:00,33.5,31.2,30.16,NNE,21,0.0,1.0,91,0.00,,,0.00,Wunderground v.1.15,2013-03-19 12:06:00,
2013-03-19 05:11:00,33.5,30.9,30.16,NNE,21,0.0,0.0,90,0.00,,,0.00,Wunderground v.1.15,2013-03-19 12:11:00,
2013-03-19 05:16:00,33.5,30.9,30.15,NNE,21,0.0,1.0,90,0.00,,,0.00,Wunderground v.1.15,2013-03-19 12:16:00,
2013-03-19 05:21:00,33.5,30.9,30.15,NNE,21,0.0,0.0,90,0.00,,,0.00,Wunderground v.1.15,2013-03-19 12:21:00,
2013-03-19 05:27:00,33.5,30.9,30.15,NNE,21,0.0,0.0,90,0.00,,,0.00,Wunderground v.1.15,2013-03-19 12:27:00,
2013-03-19 05:32:00,33.5,30.9,30.15,NNE,21,0.0,0.0,90,0.00,,,0.00,Wunderground v.1.15,2013-03-19 12:32:00,
2013-03-19 05:37:00,33.4,30.8,30.15,NNE,21,0.0,1.0,90,0.00,,,0.00,Wunderground v.1.15,2013-03-19 12:37:00,
2013-03-19 05:42:00,33.5,30.9,30.14,NNE,21,0.0,1.0,90,0.00,,,0.00,Wunderground v.1.15,2013-03-19 12:42:00,
2013-03-19 05:47:00,33.6,30.7,30.14,NNE,21,0.0,1.0,89,0.00,,,0.00,Wunderground v.1.15,2013-03-19 12:47:00,
2013-03-19 05:52:00,33.7,31.1,30.14,NNE,21,0.0,0.0,90,0.00,,,0.00,Wunderground v.1.15,2013-03-19 12:52:00,
2013-03-19 05:57:00,33.8,30.9,30.14,NNE,21,0.0,1.0,89,0.00,,,0.00,Wunderground v.1.15,2013-03-19 12:57:00,
2013-03-19 06:02:00,33.8,30.9,30.14,NNE,21,0.0,0.0,89,0.00,,,0.00,Wunderground v.1.15,2013-03-19 13:02:00,
2013-03-19 06:07:00,33.9,31.0,30.14,NNE,21,0.0,0.0,89,0.00,,,0.00,Wunderground v.1.15,2013-03-19 13:07:00,
2013-03-19 06:12:00,33.9,31.0,30.13,North,360,0.0,0.0,89,0.00,,,0.00,Wunderground v.1.15,2013-03-19 13:12:00,
2013-03-19 06:17:00,34.0,31.1,30.13,North,355,0.0,1.0,89,0.00,,,0.00,Wunderground v.1.15,2013-03-19 13:17:00,
2013-03-19 06:22:00,34.0,31.1,30.13,North,355,0.0,0.0,89,0.00,,,0.00,Wunderground v.1.15,2013-03-19 13:22:00,
2013-03-19 06:27:00,34.0,31.1,30.13,North,355,0.0,0.0,89,0.00,,,0.00,Wunderground v.1.15,2013-03-19 13:27:00,
2013-03-19 06:32:00,34.0,31.1,30.13,North,355,0.0,0.0,89,0.00,,,0.00,Wunderground v.1.15,2013-03-19 13:32:00,
2013-03-19 06:37:00,34.0,31.1,30.12,North,355,0.0,0.0,89,0.00,,,0.00,Wunderground v.1.15,2013-03-19 13:37:00,
2013-03-19 06:42:00,34.0,31.1,30.13,North,355,0.0,0.0,89,0.00,,,0.00,Wunderground v.1.15,2013-03-19 13:42:00,
2013-03-19 06:47:00,34.0,31.1,30.12,North,355,0.0,0.0,89,0.00,,,0.00,Wunderground v.1.15,2013-03-19 13:47:00,
2013-03-19 06:52:00,33.9,31.0,30.12,North,355,0.0,1.0,89,0.00,,,0.00,Wunderground v.1.15,2013-03-19 13:52:00,
2013-03-19 06:58:00,33.9,31.0,30.11,North,355,0.0,1.0,89,0.00,,,0.00,Wunderground v.1.15,2013-03-19 13:58:00,
2013-03-19 07:03:00,34.0,31.1,30.11,North,355,0.0,1.0,89,0.00,,,0.00,Wunderground v.1.15,2013-03-19 14:03:00,
2013-03-19 07:08:00,34.1,31.2,30.11,North,355,0.0,1.0,89,0.00,,,0.00,Wunderground v.1.15,2013-03-19 14:08:00,
2013-03-19 07:13:00,34.3,31.4,30.10,North,355,0.0,0.0,89,0.00,,,0.00,Wunderground v.1.15,2013-03-19 14:13:00,
2013-03-19 07:18:00,34.4,31.5,30.10,North,355,0.0,0.0,89,0.00,,,0.00,Wunderground v.1.15,2013-03-19 14:18:00,
2013-03-19 07:23:00,34.4,31.5,30.10,North,355,0.0,0.0,89,0.00,,,0.00,Wunderground v.1.15,2013-03-19 14:23:00,
2013-03-19 07:28:00,34.4,31.5,30.10,North,355,0.0,0.0,89,0.00,,,0.00,Wunderground v.1.15,2013-03-19 14:28:00,
2013-03-19 07:33:00,34.6,31.7,30.10,North,355,0.0,0.0,89,0.00,,,0.00,Wunderground v.1.15,2013-03-19 14:33:00,
2013-03-19 07:38:00,34.8,31.9,30.09,North,355,0.0,1.0,89,0.00,,,0.00,Wunderground v.1.15,2013-03-19 14:38:00,
2013-03-19 07:43:00,34.9,32.0,30.09,North,355,0.0,3.0,89,0.00,,,0.00,Wunderground v.1.15,2013-03-19 14:43:00,
2013-03-19 07:48:00,35.1,32.2,30.09,North,355,0.0,3.0,89,0.00,,,0.00,Wunderground v.1.15,2013-03-19 14:48:00,
2013-03-19 07:53:00,35.3,32.4,30.09,SW,222,1.0,1.0,89,0.00,,,0.00,Wunderground v.1.15,2013-03-19 14:53:00,
2013-03-19 07:58:00,35.5,32.3,30.09,NNW,341,0.0,1.0,88,0.00,,,0.00,Wunderground v.1.15,2013-03-19 14:58:00,
2013-03-19 08:03:00,35.8,32.6,30.09,NNW,348,0.0,0.0,88,0.00,,,0.00,Wunderground v.1.15,2013-03-19 15:03:00,
2013-03-19 08:08:00,36.0,32.8,30.09,NW,307,0.0,3.0,88,0.00,,,0.00,Wunderground v.1.15,2013-03-19 15:08:00,
2013-03-19 08:13:00,36.2,32.7,30.09,North,360,0.0,1.0,87,0.00,,,0.00,Wunderground v.1.15,2013-03-19 15:13:00,
2013-03-19 08:18:00,36.4,32.9,30.08,North,360,0.0,1.0,87,0.00,,,0.00,Wunderground v.1.15,2013-03-19 15:18:00,
2013-03-19 08:23:00,36.6,33.1,30.08,North,355,0.0,0.0,87,0.00,,,0.00,Wunderground v.1.15,2013-03-19 15:23:00,
2013-03-19 08:28:00,36.8,33.3,30.08,North,355,0.0,0.0,87,0.00,,,0.00,Wunderground v.1.15,2013-03-19 15:28:00,
2013-03-19 08:33:00,37.0,33.2,30.08,NE,43,0.0,2.0,86,0.00,,,0.00,Wunderground v.1.15,2013-03-19 15:33:00,
2013-03-19 08:38:00,37.2,33.4,30.08,North,10,0.0,2.0,86,0.00,,,0.00,Wunderground v.1.15,2013-03-19 15:38:00,
2013-03-19 08:43:00,37.5,33.7,30.08,North,5,0.0,1.0,86,0.00,,,0.00,Wunderground v.1.15,2013-03-19 15:43:00,
2013-03-19 08:48:00,37.8,34.0,30.07,North,355,0.0,1.0,86,0.00,,,0.00,Wunderground v.1.15,2013-03-19 15:48:00,
2013-03-19 08:53:00,38.0,34.2,30.07,North,355,0.0,2.0,86,0.00,,,0.00,Wunderground v.1.15,2013-03-19 15:53:00,
2013-03-19 08:58:00,38.3,34.2,30.07,North,355,1.0,2.0,85,0.00,,,0.00,Wunderground v.1.15,2013-03-19 15:58:00,
2013-03-19 09:03:00,38.6,34.5,30.07,North,355,0.0,1.0,85,0.00,,,0.00,Wunderground v.1.15,2013-03-19 16:03:00,
2013-03-19 09:08:00,38.9,34.5,30.07,North,355,0.0,2.0,84,0.00,,,0.00,Wunderground v.1.15,2013-03-19 16:08:00,
2013-03-19 09:13:00,39.2,34.8,30.07,NNW,346,0.0,1.0,84,0.00,,,0.00,Wunderground v.1.15,2013-03-19 16:13:00,
2013-03-19 09:18:00,39.4,35.0,30.06,NNW,345,1.0,1.0,84,0.00,,,0.00,Wunderground v.1.15,2013-03-19 16:18:00,
2013-03-19 09:23:00,39.6,34.9,30.06,North,5,0.0,2.0,83,0.00,,,0.00,Wunderground v.1.15,2013-03-19 16:23:00,
2013-03-19 09:28:00,39.8,34.8,30.06,NE,38,0.0,2.0,82,0.00,,,0.00,Wunderground v.1.15,2013-03-19 16:28:00,
2013-03-19 09:33:00,40.1,35.0,30.06,NNW,346,0.0,3.0,82,0.00,,,0.00,Wunderground v.1.15,2013-03-19 16:33:00,
2013-03-19 09:38:00,40.3,34.9,30.06,North,360,0.0,4.0,81,0.00,,,0.00,Wunderground v.1.15,2013-03-19 16:38:00,
2013-03-19 09:43:00,40.6,34.9,30.07,North,350,1.0,1.0,80,0.00,,,0.00,Wunderground v.1.15,2013-03-19 16:43:00,
2013-03-19 09:48:00,40.9,34.9,30.07,North,360,0.0,6.0,79,0.00,,,0.00,Wunderground v.1.15,2013-03-19 16:48:00,
2013-03-19 09:53:00,41.2,35.2,30.06,NW,319,0.0,4.0,79,0.00,,,0.00,Wunderground v.1.15,2013-03-19 16:53:00,
2013-03-19 09:58:00,41.6,35.2,30.06,North,355,0.0,4.0,78,0.00,,,0.00,Wunderground v.1.15,2013-03-19 16:58:00,
2013-03-19 10:03:00,42.0,36.0,30.06,North,355,0.0,1.0,79,0.00,,,0.00,Wunderground v.1.15,2013-03-19 17:03:00,
2013-03-19 10:08:00,42.4,35.7,30.05,ENE,73,0.0,5.0,77,0.00,,,0.00,Wunderground v.1.15,2013-03-19 17:08:00,
2013-03-19 10:13:00,42.7,35.7,30.05,North,10,1.0,4.0,76,0.00,,,0.00,Wunderground v.1.15,2013-03-19 17:13:00,
2013-03-19 10:18:00,43.1,36.0,30.05,NNW,332,4.0,5.0,76,0.00,,,0.00,Wunderground v.1.15,2013-03-19 17:18:00,
2013-03-19 10:23:00,43.5,36.1,30.05,NNE,32,0.0,3.0,75,0.00,,,0.00,Wunderground v.1.15,2013-03-19 17:23:00,
2013-03-19 10:28:00,43.8,36.4,30.04,North,5,5.0,8.0,75,0.00,,,0.00,Wunderground v.1.15,2013-03-19 17:28:00,
2013-03-19 10:33:00,44.1,36.3,30.04,NW,324,1.0,5.0,74,0.00,,,0.00,Wunderground v.1.15,2013-03-19 17:33:00,
2013-03-19 10:38:00,44.3,36.2,30.04,NNW,331,0.0,5.0,73,0.00,,,0.00,Wunderground v.1.15,2013-03-19 17:38:00,
2013-03-19 10:43:00,44.7,36.6,30.03,NW,318,0.0,2.0,73,0.00,,,0.00,Wunderground v.1.15,2013-03-19 17:43:00,
2013-03-19 10:48:00,45.0,36.5,30.03,WNW,288,0.0,6.0,72,0.00,,,0.00,Wunderground v.1.15,2013-03-19 17:48:00,
2013-03-19 10:53:00,45.2,36.0,30.03,NW,307,0.0,2.0,70,0.00,,,0.00,Wunderground v.1.15,2013-03-19 17:53:00,
2013-03-19 10:58:00,45.4,35.8,30.03,South,183,0.0,2.0,69,0.00,,,0.00,Wunderground v.1.15,2013-03-19 17:58:00,
2013-03-19 11:03:00,45.8,35.8,30.03,NNW,327,0.0,1.0,68,0.00,,,0.00,Wunderground v.1.15,2013-03-19 18:03:00,
2013-03-19 11:08:00,46.0,34.9,30.02,WSW,252,0.0,2.0,65,0.00,,,0.00,Wunderground v.1.15,2013-03-19 18:08:00,
2013-03-19 11:13:00,46.3,35.9,30.02,East,82,0.0,3.0,67,0.00,,,0.00,Wunderground v.1.15,2013-03-19 18:13:00,
2013-03-19 11:18:00,46.6,36.2,30.02,ENE,77,0.0,3.0,67,0.00,,,0.00,Wunderground v.1.15,2013-03-19 18:18:00,
2013-03-19 11:23:00,46.7,35.9,30.02,North,350,0.0,2.0,66,0.00,,,0.00,Wunderground v.1.15,2013-03-19 18:23:00,
2013-03-19 11:28:00,46.9,36.9,30.01,North,355,0.0,2.0,68,0.00,,,0.00,Wunderground v.1.15,2013-03-19 18:28:00,
2013-03-19 11:33:00,47.1,36.3,30.01,ENE,65,0.0,1.0,66,0.00,,,0.00,Wunderground v.1.15,2013-03-19 18:33:00,
2013-03-19 11:39:00,47.2,35.6,30.01,WSW,253,0.0,1.0,64,0.00,,,0.00,Wunderground v.1.15,2013-03-19 18:39:00,
2013-03-19 11:44:00,47.2,35.2,30.00,NW,319,0.0,1.0,63,0.00,,,0.00,Wunderground v.1.15,2013-03-19 18:44:00,
2013-03-19 11:49:00,47.4,35.0,30.00,West,265,0.0,1.0,62,0.00,,,0.00,Wunderground v.1.15,2013-03-19 18:49:00,
2013-03-19 11:54:00,47.4,35.4,30.00,NW,307,0.0,2.0,63,0.00,,,0.00,Wunderground v.1.15,2013-03-19 18:54:00,
2013-03-19 11:59:00,47.7,36.9,30.00,NNW,342,0.0,2.0,66,0.00,,,0.00,Wunderground v.1.15,2013-03-19 18:59:00,
2013-03-19 12:04:00,48.1,36.5,29.99,NNW,344,0.0,2.0,64,0.00,,,0.00,Wunderground v.1.15,2013-03-19 19:04:00,
2013-03-19 12:09:00,48.3,35.9,29.99,WNW,302,0.0,5.0,62,0.00,,,0.00,Wunderground v.1.15,2013-03-19 19:09:00,
2013-03-19 12:14:00,48.5,35.7,29.99,NW,304,2.0,2.0,61,0.00,,,0.00,Wunderground v.1.15,2013-03-19 19:14:00,
2013-03-19 12:19:00,48.6,35.7,29.98,NW,326,0.0,2.0,61,0.00,,,0.00,Wunderground v.1.15,2013-03-19 19:19:00,
2013-03-19 12:24:00,48.8,35.1,29.98,NW,326,0.0,1.0,59,0.00,,,0.00,Wunderground v.1.15,2013-03-19 19:24:00,
2013-03-19 12:29:00,48.8,34.7,29.97,ENE,58,0.0,1.0,58,0.00,,,0.00,Wunderground v.1.15,2013-03-19 19:29:00,
2013-03-19 12:34:00,48.9,35.6,29.97,North,355,0.0,1.0,60,0.00,,,0.00,Wunderground v.1.15,2013-03-19 19:34:00,
2013-03-19 12:39:00,49.1,36.6,29.96,NNW,338,0.0,1.0,62,0.00,,,0.00,Wunderground v.1.15,2013-03-19 19:39:00,
2013-03-19 12:44:00,49.1,35.8,29.96,North,349,0.0,0.0,60,0.00,,,0.00,Wunderground v.1.15,2013-03-19 19:44:00,
2013-03-19 12:49:00,49.2,36.7,29.96,NNW,337,0.0,1.0,62,0.00,,,0.00,Wunderground v.1.15,2013-03-19 19:49:00,
2013-03-19 12:55:00,49.6,36.7,29.95,NW,321,0.0,0.0,61,0.00,,,0.00,Wunderground v.1.15,2013-03-19 19:55:00,
2013-03-19 13:00:00,50.2,36.0,29.95,SSW,196,0.0,0.0,58,0.00,,,0.00,Wunderground v.1.15,2013-03-19 20:00:00,
2013-03-19 13:05:00,50.8,37.8,29.95,South,186,1.0,1.0,61,0.00,,,0.00,Wunderground v.1.15,2013-03-19 20:05:00,
2013-03-19 13:10:00,51.2,36.5,29.94,NNW,329,1.0,2.0,57,0.00,,,0.00,Wunderground v.1.15,2013-03-19 20:10:00,
2013-03-19 13:15:00,51.9,37.1,29.94,NNW,342,0.0,2.0,57,0.00,,,0.00,Wunderground v.1.15,2013-03-19 20:15:00,
2013-03-19 13:20:00,52.3,36.6,29.94,SW,215,0.0,0.0,55,0.00,,,0.00,Wunderground v.1.15,2013-03-19 20:20:00,
2013-03-19 13:25:00,52.4,38.0,29.93,North,5,1.0,2.0,58,0.00,,,0.00,Wunderground v.1.15,2013-03-19 20:25:00,
2013-03-19 13:30:00,52.6,36.4,29.93,North,355,0.0,0.0,54,0.00,,,0.00,Wunderground v.1.15,2013-03-19 20:30:00,
2013-03-19 13:35:00,52.7,37.0,29.93,NW,316,0.0,1.0,55,0.00,,,0.00,Wunderground v.1.15,2013-03-19 20:35:00,
2013-03-19 13:40:00,52.5,35.8,29.92,SW,219,0.0,0.0,53,0.00,,,0.00,Wunderground v.1.15,2013-03-19 20:40:00,
2013-03-19 13:45:00,52.3,36.6,29.92,NNW,348,0.0,1.0,55,0.00,,,0.00,Wunderground v.1.15,2013-03-19 20:45:00,
2013-03-19 13:50:00,52.4,37.2,29.92,NNE,24,0.0,0.0,56,0.00,,,0.00,Wunderground v.1.15,2013-03-19 20:50:00,
2013-03-19 13:55:00,52.3,36.6,29.91,WSW,242,0.0,2.0,55,0.00,,,0.00,Wunderground v.1.15,2013-03-19 20:55:00,
2013-03-19 14:00:00,52.2,36.5,29.91,West,267,0.0,0.0,55,0.00,,,0.00,Wunderground v.1.15,2013-03-19 21:00:00,
2013-03-19 14:05:00,52.1,35.9,29.91,NNE,15,0.0,1.0,54,0.00,,,0.00,Wunderground v.1.15,2013-03-19 21:05:00,
2013-03-19 14:10:00,51.9,36.7,29.91,WSW,243,0.0,0.0,56,0.00,,,0.00,Wunderground v.1.15,2013-03-19 21:10:00,
2013-03-19 14:15:00,51.6,36.4,29.90,North,351,0.0,1.0,56,0.00,,,0.00,Wunderground v.1.15,2013-03-19 21:15:00,
2013-03-19 14:20:00,51.4,36.7,29.90,North,351,0.0,0.0,57,0.00,,,0.00,Wunderground v.1.15,2013-03-19 21:20:00,
2013-03-19 14:25:00,51.3,35.7,29.90,North,351,0.0,0.0,55,0.00,,,0.00,Wunderground v.1.15,2013-03-19 21:25:00,
2013-03-19 14:30:00,51.1,35.5,29.89,WSW,240,0.0,0.0,55,0.00,,,0.00,Wunderground v.1.15,2013-03-19 21:30:00,
2013-03-19 14:35:00,51.0,35.8,29.89,NNE,17,0.0,2.0,56,0.00,,,0.00,Wunderground v.1.15,2013-03-19 21:35:00,
2013-03-19 14:40:00,51.1,36.4,29.89,North,355,0.0,0.0,57,0.00,,,0.00,Wunderground v.1.15,2013-03-19 21:40:00,
2013-03-19 14:45:00,51.2,36.0,29.89,South,179,1.0,1.0,56,0.00,,,0.00,Wunderground v.1.15,2013-03-19 21:45:00,
2013-03-19 14:51:00,51.3,36.6,29.89,NNE,17,0.0,0.0,57,0.00,,,0.00,Wunderground v.1.15,2013-03-19 21:51:00,
2013-03-19 14:55:00,51.2,36.5,29.88,NE,40,0.0,4.0,57,0.00,,,0.00,Wunderground v.1.15,2013-03-19 21:55:00,
2013-03-19 15:00:00,51.1,36.8,29.88,NE,51,0.0,0.0,58,0.00,,,0.00,Wunderground v.1.15,2013-03-19 22:00:00,
2013-03-19 15:05:00,51.1,36.8,29.87,WNW,297,0.0,2.0,58,0.00,,,0.00,Wunderground v.1.15,2013-03-19 22:05:00,
2013-03-19 15:11:00,50.8,35.7,29.87,NNW,327,0.0,0.0,56,0.00,,,0.00,Wunderground v.1.15,2013-03-19 22:11:00,
2013-03-19 15:16:00,50.6,35.0,29.86,SW,215,0.0,3.0,55,0.00,,,0.00,Wunderground v.1.15,2013-03-19 22:16:00,
2013-03-19 15:21:00,50.5,35.4,29.86,WNW,296,0.0,1.0,56,0.00,,,0.00,Wunderground v.1.15,2013-03-19 22:21:00,
2013-03-19 15:26:00,50.5,36.3,29.85,NW,325,0.0,1.0,58,0.00,,,0.00,Wunderground v.1.15,2013-03-19 22:26:00,
2013-03-19 15:31:00,50.3,35.6,29.85,NNW,336,0.0,0.0,57,0.00,,,0.00,Wunderground v.1.15,2013-03-19 22:31:00,
2013-03-19 15:37:00,50.2,35.5,29.85,North,5,0.0,6.0,57,0.00,,,0.00,Wunderground v.1.15,2013-03-19 22:37:00,
2013-03-19 15:42:00,50.1,35.0,29.85,North,360,0.0,1.0,56,0.00,,,0.00,Wunderground v.1.15,2013-03-19 22:42:00,
2013-03-19 15:47:00,50.1,35.0,29.85,NW,311,0.0,1.0,56,0.00,,,0.00,Wunderground v.1.15,2013-03-19 22:47:00,
2013-03-19 15:52:00,50.1,35.9,29.84,NNE,28,0.0,2.0,58,0.00,,,0.00,Wunderground v.1.15,2013-03-19 22:52:00,
2013-03-19 15:57:00,50.1,35.9,29.84,NW,321,2.0,2.0,58,0.00,,,0.00,Wunderground v.1.15,2013-03-19 22:57:00,
2013-03-19 16:02:00,50.1,35.9,29.84,NNW,341,0.0,0.0,58,0.00,,,0.00,Wunderground v.1.15,2013-03-19 23:02:00,
2013-03-19 16:07:00,50.1,35.4,29.83,NNW,344,0.0,1.0,57,0.00,,,0.00,Wunderground v.1.15,2013-03-19 23:07:00,
2013-03-19 16:12:00,50.1,36.7,29.83,NNW,344,0.0,1.0,60,0.00,,,0.00,Wunderground v.1.15,2013-03-19 23:12:00,
2013-03-19 16:17:00,50.0,36.7,29.84,NE,50,0.0,5.0,60,0.00,,,0.00,Wunderground v.1.15,2013-03-19 23:17:00,
2013-03-19 16:22:00,49.9,36.1,29.83,NW,315,0.0,0.0,59,0.00,,,0.00,Wunderground v.1.15,2013-03-19 23:22:00,
2013-03-19 16:27:00,49.9,36.1,29.84,NW,315,0.0,0.0,59,0.00,,,0.00,Wunderground v.1.15,2013-03-19 23:27:00,
2013-03-19 16:32:00,49.9,36.1,29.83,NW,315,0.0,0.0,59,0.00,,,0.00,Wunderground v.1.15,2013-03-19 23:32:00,
2013-03-19 16:37:00,49.9,35.3,29.83,NNE,22,0.0,1.0,57,0.00,,,0.00,Wunderground v.1.15,2013-03-19 23:37:00,
2013-03-19 16:42:00,50.0,35.8,29.83,NNE,13,0.0,0.0,58,0.00,,,0.00,Wunderground v.1.15,2013-03-19 23:42:00,
2013-03-19 16:47:00,50.1,36.7,29.83,South,183,0.0,5.0,60,0.00,,,0.00,Wunderground v.1.15,2013-03-19 23:47:00,
2013-03-19 16:53:00,50.1,36.7,29.82,SSW,198,4.0,5.0,60,0.00,,,0.00,Wunderground v.1.15,2013-03-19 23:53:00,
2013-03-19 16:58:00,50.2,36.4,29.82,North,5,0.0,5.0,59,0.00,,,0.00,Wunderground v.1.15,2013-03-19 23:58:00,
2013-03-19 17:03:00,50.4,35.7,29.82,SW,217,0.0,1.0,57,0.00,,,0.00,Wunderground v.1.15,2013-03-20 00:03:00,
2013-03-19 17:08:00,50.5,36.3,29.82,ESE,118,0.0,4.0,58,0.00,,,0.00,Wunderground v.1.15,2013-03-20 00:08:00,
2013-03-19 17:13:00,50.5,37.1,29.82,SE,138,0.0,5.0,60,0.00,,,0.00,Wunderground v.1.15,2013-03-20 00:13:00,
2013-03-19 17:18:00,50.6,38.1,29.82,SSW,206,2.0,14.0,62,0.00,,,0.00,Wunderground v.1.15,2013-03-20 00:18:00,
2013-03-19 17:23:00,50.4,39.1,29.82,SSE,157,4.0,10.0,65,0.00,,,0.00,Wunderground v.1.15,2013-03-20 00:23:00,
2013-03-19 17:28:00,49.5,39.4,29.82,South,182,0.0,14.0,68,0.00,,,0.00,Wunderground v.1.15,2013-03-20 00:28:00,
2013-03-19 17:33:00,49.0,39.6,29.82,SE,136,0.0,6.0,70,0.00,,,0.00,Wunderground v.1.15,2013-03-20 00:33:00,
2013-03-19 17:38:00,48.6,40.0,29.82,SSE,153,0.0,6.0,72,0.00,,,0.00,Wunderground v.1.15,2013-03-20 00:38:00,
2013-03-19 17:43:00,48.2,40.3,29.81,SSE,157,0.0,4.0,74,0.00,,,0.00,Wunderground v.1.15,2013-03-20 00:43:00,
2013-03-19 17:48:00,47.9,40.7,29.81,WSW,258,0.0,4.0,76,0.00,,,0.01,Wunderground v.1.15,2013-03-20 00:48:00,
2013-03-19 17:53:00,47.6,40.7,29.81,North,360,0.0,1.0,77,0.00,,,0.01,Wunderground v.1.15,2013-03-20 00:53:00,
2013-03-19 17:58:00,47.3,40.8,29.80,SSW,210,0.0,6.0,78,0.00,,,0.01,Wunderground v.1.15,2013-03-20 00:58:00,
2013-03-19 18:03:00,47.0,40.8,29.80,NNW,329,0.0,1.0,79,0.00,,,0.01,Wunderground v.1.15,2013-03-20 01:03:00,
2013-03-19 18:08:00,46.8,41.0,29.79,NNW,343,1.0,1.0,80,0.00,,,0.02,Wunderground v.1.15,2013-03-20 01:08:00,
2013-03-19 18:13:00,46.6,40.4,29.78,South,188,0.0,1.0,79,0.00,,,0.02,Wunderground v.1.15,2013-03-20 01:13:00,
2013-03-19 18:18:00,46.5,41.0,29.78,East,94,0.0,2.0,81,0.00,,,0.02,Wunderground v.1.15,2013-03-20 01:18:00,
2013-03-19 18:23:00,46.4,41.2,29.78,East,94,0.0,0.0,82,0.00,,,0.02,Wunderground v.1.15,2013-03-20 01:23:00,
2013-03-19 18:29:00,46.3,41.4,29.78,WNW,295,0.0,1.0,83,0.00,,,0.02,Wunderground v.1.15,2013-03-20 01:29:00,
2013-03-19 18:34:00,46.1,41.5,29.77,WNW,295,0.0,0.0,84,0.00,,,0.03,Wunderground v.1.15,2013-03-20 01:34:00,
2013-03-19 18:39:00,45.9,41.3,29.77,WSW,239,0.0,2.0,84,0.00,,,0.03,Wunderground v.1.15,2013-03-20 01:39:00,
2013-03-19 18:44:00,45.7,41.4,29.77,WSW,240,0.0,1.0,85,0.00,,,0.03,Wunderground v.1.15,2013-03-20 01:44:00,
2013-03-19 18:49:00,45.5,42.4,29.76,WSW,249,0.0,1.0,89,0.00,,,0.03,Wunderground v.1.15,2013-03-20 01:49:00,
2013-03-19 18:54:00,45.2,41.0,29.76,SW,233,0.0,1.0,85,0.00,,,0.03,Wunderground v.1.15,2013-03-20 01:54:00,
2013-03-19 18:59:00,45.1,41.2,29.76,SW,233,0.0,1.0,86,0.00,,,0.03,Wunderground v.1.15,2013-03-20 01:59:00,
2013-03-19 19:04:00,45.0,41.1,29.75,SW,233,0.0,0.0,86,0.00,,,0.03,Wunderground v.1.15,2013-03-20 02:04:00,
2013-03-19 19:09:00,44.9,41.3,29.75,NW,321,0.0,0.0,87,0.00,,,0.03,Wunderground v.1.15,2013-03-20 02:09:00,
2013-03-19 19:14:00,44.8,41.2,29.75,SW,229,0.0,0.0,87,0.00,,,0.04,Wunderground v.1.15,2013-03-20 02:14:00,
2013-03-19 19:19:00,44.7,41.1,29.74,WNW,296,0.0,1.0,87,0.00,,,0.04,Wunderground v.1.15,2013-03-20 02:19:00,
2013-03-19 19:24:00,44.5,40.9,29.74,NW,313,0.0,1.0,87,0.00,,,0.04,Wunderground v.1.15,2013-03-20 02:24:00,
2013-03-19 19:29:00,44.3,40.7,29.74,NNW,342,0.0,4.0,87,0.00,,,0.04,Wunderground v.1.15,2013-03-20 02:29:00,
2013-03-19 19:34:00,44.1,40.5,29.74,NW,317,0.0,2.0,87,0.00,,,0.04,Wunderground v.1.15,2013-03-20 02:34:00,
2013-03-19 19:39:00,43.9,40.6,29.74,NW,317,0.0,2.0,88,0.00,,,0.04,Wunderground v.1.15,2013-03-20 02:39:00,
2013-03-19 19:44:00,43.8,40.5,29.73,NW,317,0.0,1.0,88,0.00,,,0.04,Wunderground v.1.15,2013-03-20 02:44:00,
2013-03-19 19:49:00,43.6,40.3,29.73,NE,43,0.0,3.0,88,0.00,,,0.04,Wunderground v.1.15,2013-03-20 02:49:00,
2013-03-19 19:55:00,43.5,40.2,29.72,NNE,17,0.0,2.0,88,0.00,,,0.04,Wunderground v.1.15,2013-03-20 02:55:00,
2013-03-19 20:00:00,43.4,40.1,29.72,NNE,17,0.0,0.0,88,0.00,,,0.04,Wunderground v.1.15,2013-03-20 03:00:00,
2013-03-19 20:05:00,43.3,40.3,29.71,SSW,204,0.0,1.0,89,0.00,,,0.05,Wunderground v.1.15,2013-03-20 03:05:00,
2013-03-19 20:10:00,43.2,40.2,29.71,NNE,33,0.0,0.0,89,0.00,,,0.05,Wunderground v.1.15,2013-03-20 03:10:00,
2013-03-19 20:15:00,43.1,40.1,29.71,South,182,0.0,2.0,89,0.05,,,0.06,Wunderground v.1.15,2013-03-20 03:15:00,
2013-03-19 20:20:00,43.0,40.0,29.71,South,182,0.0,0.0,89,0.05,,,0.06,Wunderground v.1.15,2013-03-20 03:20:00,
2013-03-19 20:25:00,42.9,39.9,29.70,SSE,157,0.0,1.0,89,0.05,,,0.06,Wunderground v.1.15,2013-03-20 03:25:00,
2013-03-19 20:30:00,42.9,40.2,29.70,NE,49,0.0,0.0,90,0.05,,,0.07,Wunderground v.1.15,2013-03-20 03:30:00,
2013-03-19 20:35:00,42.7,40.0,29.69,NNW,338,0.0,1.0,90,0.05,,,0.07,Wunderground v.1.15,2013-03-20 03:35:00,
2013-03-19 20:40:00,42.7,40.0,29.69,NW,321,0.0,0.0,90,0.05,,,0.08,Wunderground v.1.15,2013-03-20 03:40:00,
2013-03-19 20:45:00,42.6,39.9,29.68,NW,321,0.0,0.0,90,0.05,,,0.08,Wunderground v.1.15,2013-03-20 03:45:00,
2013-03-19 20:50:00,42.6,39.9,29.68,NNW,346,1.0,1.0,90,0.05,,,0.08,Wunderground v.1.15,2013-03-20 03:50:00,
2013-03-19 20:55:00,42.5,39.8,29.67,North,5,0.0,1.0,90,0.00,,,0.08,Wunderground v.1.15,2013-03-20 03:55:00,
2013-03-19 21:00:00,42.4,39.7,29.67,North,5,0.0,0.0,90,0.00,,,0.08,Wunderground v.1.15,2013-03-20 04:00:00,
2013-03-19 21:01:00,42.4,39.7,29.67,North,5,0.0,1.0,90,0.00,,,0.08,Wunderground v.1.15,2013-03-20 04:01:00,
2013-03-19 21:06:00,42.4,39.7,29.67,North,355,0.0,1.0,90,0.00,,,0.08,Wunderground v.1.15,2013-03-20 04:06:00,
2013-03-19 21:11:00,42.3,39.6,29.66,North,355,0.0,0.0,90,0.00,,,0.08,Wunderground v.1.15,2013-03-20 04:11:00,
2013-03-19 21:16:00,42.2,39.8,29.66,North,355,0.0,0.0,91,0.00,,,0.08,Wunderground v.1.15,2013-03-20 04:16:00,
2013-03-19 21:21:00,42.2,39.8,29.65,NNW,341,0.0,0.0,91,0.00,,,0.09,Wunderground v.1.15,2013-03-20 04:21:00,
2013-03-19 21:26:00,42.1,39.7,29.65,NW,325,0.0,2.0,91,0.00,,,0.09,Wunderground v.1.15,2013-03-20 04:26:00,
2013-03-19 21:32:00,42.1,39.7,29.64,NW,325,0.0,0.0,91,0.00,,,0.09,Wunderground v.1.15,2013-03-20 04:32:00,
2013-03-19 21:37:00,42.1,39.7,29.64,NNW,337,0.0,1.0,91,0.00,,,0.09,Wunderground v.1.15,2013-03-20 04:37:00,
2013-03-19 21:42:00,42.1,39.7,29.64,SSW,207,0.0,0.0,91,0.00,,,0.09,Wunderground v.1.15,2013-03-20 04:42:00,
2013-03-19 21:47:00,42.0,39.6,29.64,SSW,211,0.0,0.0,91,0.00,,,0.09,Wunderground v.1.15,2013-03-20 04:47:00,
2013-03-19 21:52:00,42.0,39.6,29.63,NNW,344,0.0,0.0,91,0.00,,,0.09,Wunderground v.1.15,2013-03-20 04:52:00,
2013-03-19 21:57:00,42.0,39.6,29.63,WNW,303,0.0,0.0,91,0.00,,,0.09,Wunderground v.1.15,2013-03-20 04:57:00,
2013-03-19 22:02:00,42.1,39.7,29.63,NW,325,0.0,4.0,91,0.00,,,0.09,Wunderground v.1.15,2013-03-20 05:02:00,
2013-03-19 22:07:00,42.1,39.7,29.62,NE,53,2.0,4.0,91,0.00,,,0.09,Wunderground v.1.15,2013-03-20 05:07:00,
2013-03-19 22:12:00,42.1,39.7,29.62,NNE,17,2.0,3.0,91,0.00,,,0.09,Wunderground v.1.15,2013-03-20 05:12:00,
2013-03-19 22:17:00,42.1,39.7,29.61,NNE,13,0.0,3.0,91,0.00,,,0.09,Wunderground v.1.15,2013-03-20 05:17:00,
2013-03-19 22:22:00,42.1,39.7,29.60,NE,53,0.0,1.0,91,0.00,,,0.09,Wunderground v.1.15,2013-03-20 05:22:00,
2013-03-19 22:27:00,42.1,39.9,29.59,North,360,0.0,4.0,92,0.00,,,0.09,Wunderground v.1.15,2013-03-20 05:27:00,
2013-03-19 22:32:00,42.1,39.9,29.59,NNE,20,0.0,3.0,92,0.00,,,0.09,Wunderground v.1.15,2013-03-20 05:32:00,
2013-03-19 22:37:00,42.1,39.9,29.59,SSE,168,0.0,3.0,92,0.00,,,0.09,Wunderground v.1.15,2013-03-20 05:37:00,
2013-03-19 22:42:00,42.1,39.7,29.59,North,350,0.0,2.0,91,0.00,,,0.09,Wunderground v.1.15,2013-03-20 05:42:00,
2013-03-19 22:47:00,42.1,39.7,29.59,WNW,303,0.0,2.0,91,0.00,,,0.09,Wunderground v.1.15,2013-03-20 05:47:00,
2013-03-19 22:52:00,42.1,39.7,29.59,NW,304,0.0,0.0,91,0.00,,,0.09,Wunderground v.1.15,2013-03-20 05:52:00,
2013-03-19 22:57:00,42.2,39.8,29.59,SW,221,0.0,0.0,91,0.00,,,0.09,Wunderground v.1.15,2013-03-20 05:57:00,
2013-03-19 23:02:00,42.2,39.8,29.58,NNE,22,0.0,2.0,91,0.00,,,0.10,Wunderground v.1.15,2013-03-20 06:02:00,
2013-03-19 23:07:00,42.2,39.8,29.58,NNE,28,0.0,2.0,91,0.00,,,0.10,Wunderground v.1.15,2013-03-20 06:07:00,
2013-03-19 23:12:00,42.2,39.8,29.57,NE,37,0.0,0.0,91,0.07,,,0.11,Wunderground v.1.15,2013-03-20 06:12:00,
2013-03-19 23:17:00,42.2,39.8,29.56,NNE,28,0.0,1.0,91,0.07,,,0.12,Wunderground v.1.15,2013-03-20 06:17:00,
2013-03-19 23:22:00,42.1,39.7,29.56,NNW,344,0.0,4.0,91,0.11,,,0.13,Wunderground v.1.15,2013-03-20 06:22:00,
2013-03-19 23:27:00,42.1,39.7,29.56,SSW,207,1.0,4.0,91,0.11,,,0.13,Wunderground v.1.15,2013-03-20 06:27:00,
2013-03-19 23:32:00,42.1,39.7,29.55,North,355,0.0,1.0,91,0.08,,,0.14,Wunderground v.1.15,2013-03-20 06:32:00,
2013-03-19 23:38:00,42.0,39.6,29.55,NNW,336,0.0,3.0,91,0.08,,,0.14,Wunderground v.1.15,2013-03-20 06:38:00,
2013-03-19 23:43:00,42.1,39.9,29.55,NNW,348,1.0,1.0,92,0.05,,,0.14,Wunderground v.1.15,2013-03-20 06:43:00,
2013-03-19 23:48:00,42.0,39.8,29.54,North,350,0.0,1.0,92,0.00,,,0.15,Wunderground v.1.15,2013-03-20 06:48:00,
2013-03-19 23:53:00,42.0,39.8,29.54,NNW,344,0.0,4.0,92,0.00,,,0.15,Wunderground v.1.15,2013-03-20 06:53:00,
2013-03-19 23:58:00,42.0,39.8,29.53,NNW,348,0.0,4.0,92,0.08,,,0.16,Wunderground v.1.15,2013-03-20 06:58:00,